sensor_id;sensor_type;location;lat;lon;timestamp;temperature;humidity
13433;DHT22;6789;47.678;9.158;2022-09-09T00:00:16;14.90;99.90
13433;DHT22;6789;47.678;9.158;2022-09-09T00:05:58;15.00;99.90
13433;DHT22;6789;47.678;9.158;2022-09-09T00:11:21;15.00;99.90
13433;DHT22;6789;47.678;9.158;2022-09-09T00:16:36;14.90;99.90
13433;DHT22;6789;47.678;9.158;2022-09-09T00:33:01;14.70;99.90
13433;DHT22;6789;47.678;9.158;2022-09-09T00:38:25;14.60;99.90
13433;DHT22;6789;47.678;9.158;2022-09-09T00:43:40;14.50;99.90
13433;DHT22;6789;47.678;9.158;2022-09-09T00:49:20;14.60;99.90
13433;DHT22;6789;47.678;9.158;2022-09-09T01:00:49;14.50;99.90
13433;DHT22;6789;47.678;9.158;2022-09-09T01:12:02;14.40;99.90
13433;DHT22;6789;47.678;9.158;2022-09-09T01:17:26;14.50;99.90
13433;DHT22;6789;47.678;9.158;2022-09-09T01:28:33;14.40;99.90
13433;DHT22;6789;47.678;9.158;2022-09-09T01:33:43;14.50;99.90
13433;DHT22;6789;47.678;9.158;2022-09-09T01:38:36;14.50;99.90
13433;DHT22;6789;47.678;9.158;2022-09-09T01:43:28;14.50;99.90
13433;DHT22;6789;47.678;9.158;2022-09-09T01:48:58;14.60;99.90
13433;DHT22;6789;47.678;9.158;2022-09-09T01:54:07;14.50;99.90
13433;DHT22;6789;47.678;9.158;2022-09-09T01:59:14;14.40;99.90
13433;DHT22;6789;47.678;9.158;2022-09-09T02:04:43;14.40;99.90
13433;DHT22;6789;47.678;9.158;2022-09-09T02:10:01;14.50;99.90
13433;DHT22;6789;47.678;9.158;2022-09-09T02:21:14;14.50;99.90
13433;DHT22;6789;47.678;9.158;2022-09-09T02:26:10;14.50;99.90
13433;DHT22;6789;47.678;9.158;2022-09-09T02:31:21;14.30;99.90
13433;DHT22;6789;47.678;9.158;2022-09-09T02:36:32;14.40;99.90
13433;DHT22;6789;47.678;9.158;2022-09-09T02:41:41;14.40;99.90
13433;DHT22;6789;47.678;9.158;2022-09-09T02:47:09;14.50;99.90
13433;DHT22;6789;47.678;9.158;2022-09-09T02:52:35;14.60;99.90
13433;DHT22;6789;47.678;9.158;2022-09-09T02:57:53;14.70;99.90
13433;DHT22;6789;47.678;9.158;2022-09-09T03:03:03;14.80;99.90
13433;DHT22;6789;47.678;9.158;2022-09-09T03:07:55;14.90;99.90
13433;DHT22;6789;47.678;9.158;2022-09-09T03:12:47;14.90;99.90
13433;DHT22;6789;47.678;9.158;2022-09-09T03:17:39;14.80;99.90
13433;DHT22;6789;47.678;9.158;2022-09-09T03:22:31;14.80;99.90
13433;DHT22;6789;47.678;9.158;2022-09-09T03:27:23;14.90;99.90
13433;DHT22;6789;47.678;9.158;2022-09-09T03:32:15;15.00;99.90
13433;DHT22;6789;47.678;9.158;2022-09-09T03:37:08;15.00;99.90
13433;DHT22;6789;47.678;9.158;2022-09-09T03:42:00;15.00;99.90
13433;DHT22;6789;47.678;9.158;2022-09-09T03:46:55;15.10;99.90
13433;DHT22;6789;47.678;9.158;2022-09-09T03:51:46;15.20;99.90
13433;DHT22;6789;47.678;9.158;2022-09-09T03:56:38;15.30;99.90
13433;DHT22;6789;47.678;9.158;2022-09-09T04:01:33;15.20;99.90
13433;DHT22;6789;47.678;9.158;2022-09-09T04:06:39;15.20;99.90
13433;DHT22;6789;47.678;9.158;2022-09-09T04:11:45;15.20;99.90
13433;DHT22;6789;47.678;9.158;2022-09-09T04:16:52;15.20;99.90
13433;DHT22;6789;47.678;9.158;2022-09-09T04:21:58;15.30;99.90
13433;DHT22;6789;47.678;9.158;2022-09-09T04:27:04;15.40;99.90
13433;DHT22;6789;47.678;9.158;2022-09-09T04:32:10;15.50;99.90
13433;DHT22;6789;47.678;9.158;2022-09-09T04:37:17;15.50;99.90
13433;DHT22;6789;47.678;9.158;2022-09-09T04:42:23;15.60;99.90
13433;DHT22;6789;47.678;9.158;2022-09-09T04:47:29;15.80;99.90
13433;DHT22;6789;47.678;9.158;2022-09-09T04:52:35;15.80;99.90
13433;DHT22;6789;47.678;9.158;2022-09-09T04:57:41;15.90;99.90
13433;DHT22;6789;47.678;9.158;2022-09-09T05:08:03;15.90;99.90
13433;DHT22;6789;47.678;9.158;2022-09-09T05:13:16;15.80;99.90
13433;DHT22;6789;47.678;9.158;2022-09-09T05:19:05;15.80;99.90
13433;DHT22;6789;47.678;9.158;2022-09-09T05:24:25;15.90;99.90
13433;DHT22;6789;47.678;9.158;2022-09-09T05:29:40;15.70;99.90
13433;DHT22;6789;47.678;9.158;2022-09-09T05:35:19;15.70;99.90
13433;DHT22;6789;47.678;9.158;2022-09-09T05:40:28;15.60;99.90
13433;DHT22;6789;47.678;9.158;2022-09-09T05:46:02;15.70;99.90
13433;DHT22;6789;47.678;9.158;2022-09-09T05:51:32;15.90;99.90
13433;DHT22;6789;47.678;9.158;2022-09-09T05:56:50;15.90;99.90
13433;DHT22;6789;47.678;9.158;2022-09-09T06:02:31;15.80;99.90
13433;DHT22;6789;47.678;9.158;2022-09-09T06:14:43;15.90;99.90
13433;DHT22;6789;47.678;9.158;2022-09-09T06:19:59;16.10;99.90
13433;DHT22;6789;47.678;9.158;2022-09-09T06:25:13;16.20;99.90
13433;DHT22;6789;47.678;9.158;2022-09-09T06:30:19;16.20;99.90
13433;DHT22;6789;47.678;9.158;2022-09-09T06:35:25;16.30;99.90
13433;DHT22;6789;47.678;9.158;2022-09-09T06:40:31;16.40;99.90
13433;DHT22;6789;47.678;9.158;2022-09-09T06:45:41;16.60;99.90
13433;DHT22;6789;47.678;9.158;2022-09-09T06:50:47;16.70;99.90
13433;DHT22;6789;47.678;9.158;2022-09-09T06:55:58;16.80;99.90
13433;DHT22;6789;47.678;9.158;2022-09-09T07:01:05;17.00;99.90
13433;DHT22;6789;47.678;9.158;2022-09-09T07:06:53;17.20;99.90
13433;DHT22;6789;47.678;9.158;2022-09-09T07:12:18;17.30;99.90
13433;DHT22;6789;47.678;9.158;2022-09-09T07:17:37;17.40;99.90
13433;DHT22;6789;47.678;9.158;2022-09-09T07:23:30;17.70;99.90
13433;DHT22;6789;47.678;9.158;2022-09-09T07:28:38;17.90;99.90
13433;DHT22;6789;47.678;9.158;2022-09-09T07:33:51;18.00;99.90
13433;DHT22;6789;47.678;9.158;2022-09-09T07:39:22;18.10;99.90
13433;DHT22;6789;47.678;9.158;2022-09-09T07:44:51;18.20;99.90
13433;DHT22;6789;47.678;9.158;2022-09-09T07:50:00;18.40;99.90
13433;DHT22;6789;47.678;9.158;2022-09-09T07:55:07;18.30;99.90
13433;DHT22;6789;47.678;9.158;2022-09-09T08:00:15;18.30;99.90
13433;DHT22;6789;47.678;9.158;2022-09-09T08:05:59;18.60;99.90
13433;DHT22;6789;47.678;9.158;2022-09-09T08:11:10;18.90;99.90
13433;DHT22;6789;47.678;9.158;2022-09-09T08:16:21;19.30;99.90
13433;DHT22;6789;47.678;9.158;2022-09-09T08:21:32;19.60;99.90
13433;DHT22;6789;47.678;9.158;2022-09-09T08:26:41;20.10;99.90
13433;DHT22;6789;47.678;9.158;2022-09-09T08:31:51;20.40;99.90
13433;DHT22;6789;47.678;9.158;2022-09-09T08:37:11;20.70;99.90
13433;DHT22;6789;47.678;9.158;2022-09-09T08:42:38;21.10;99.90
13433;DHT22;6789;47.678;9.158;2022-09-09T08:48:10;21.60;99.90
13433;DHT22;6789;47.678;9.158;2022-09-09T08:53:51;21.30;99.90
13433;DHT22;6789;47.678;9.158;2022-09-09T08:59:27;20.80;99.90
13433;DHT22;6789;47.678;9.158;2022-09-09T09:11:11;20.60;99.90
13433;DHT22;6789;47.678;9.158;2022-09-09T09:16:35;20.60;99.90
13433;DHT22;6789;47.678;9.158;2022-09-09T09:27:33;20.60;99.90
13433;DHT22;6789;47.678;9.158;2022-09-09T09:33:11;20.60;99.90
13433;DHT22;6789;47.678;9.158;2022-09-09T09:38:28;20.70;99.90
13433;DHT22;6789;47.678;9.158;2022-09-09T09:43:41;20.60;99.90
13433;DHT22;6789;47.678;9.158;2022-09-09T09:49:37;20.40;99.90
13433;DHT22;6789;47.678;9.158;2022-09-09T09:55:15;20.50;99.90
13433;DHT22;6789;47.678;9.158;2022-09-09T10:00:50;20.70;99.90
13433;DHT22;6789;47.678;9.158;2022-09-09T10:06:44;21.10;99.90
13433;DHT22;6789;47.678;9.158;2022-09-09T10:36:42;21.70;99.90
13433;DHT22;6789;47.678;9.158;2022-09-09T10:42:37;21.60;99.90
13433;DHT22;6789;47.678;9.158;2022-09-09T11:06:28;22.10;99.90
13433;DHT22;6789;47.678;9.158;2022-09-09T11:17:15;21.20;99.90
13433;DHT22;6789;47.678;9.158;2022-09-09T11:23:12;20.70;99.90
13433;DHT22;6789;47.678;9.158;2022-09-09T11:34:56;20.50;99.90
13433;DHT22;6789;47.678;9.158;2022-09-09T11:46:52;21.20;99.90
13433;DHT22;6789;47.678;9.158;2022-09-09T11:58:38;21.40;99.90
13433;DHT22;6789;47.678;9.158;2022-09-09T12:09:33;21.40;99.90
13433;DHT22;6789;47.678;9.158;2022-09-09T12:21:28;21.50;99.90
13433;DHT22;6789;47.678;9.158;2022-09-09T12:27:19;21.40;99.90
13433;DHT22;6789;47.678;9.158;2022-09-09T12:38:05;21.20;99.90
13433;DHT22;6789;47.678;9.158;2022-09-09T12:43:22;21.40;99.90
13433;DHT22;6789;47.678;9.158;2022-09-09T12:48:40;21.70;99.90
13433;DHT22;6789;47.678;9.158;2022-09-09T12:53:51;21.70;99.90
13433;DHT22;6789;47.678;9.158;2022-09-09T12:59:04;21.60;99.90
13433;DHT22;6789;47.678;9.158;2022-09-09T13:04:21;21.90;99.90
13433;DHT22;6789;47.678;9.158;2022-09-09T13:09:27;22.20;99.90
13433;DHT22;6789;47.678;9.158;2022-09-09T13:14:36;22.10;99.90
13433;DHT22;6789;47.678;9.158;2022-09-09T13:20:03;22.40;99.90
13433;DHT22;6789;47.678;9.158;2022-09-09T13:25:27;22.50;99.90
13433;DHT22;6789;47.678;9.158;2022-09-09T13:30:59;22.60;99.90
13433;DHT22;6789;47.678;9.158;2022-09-09T13:36:17;22.70;99.90
13433;DHT22;6789;47.678;9.158;2022-09-09T13:41:42;22.70;99.90
13433;DHT22;6789;47.678;9.158;2022-09-09T13:47:19;22.70;99.90
13433;DHT22;6789;47.678;9.158;2022-09-09T13:52:35;22.80;99.90
13433;DHT22;6789;47.678;9.158;2022-09-09T13:57:54;22.90;99.90
13433;DHT22;6789;47.678;9.158;2022-09-09T14:03:10;22.80;99.90
13433;DHT22;6789;47.678;9.158;2022-09-09T14:08:24;22.90;99.90
13433;DHT22;6789;47.678;9.158;2022-09-09T14:13:32;22.70;99.90
13433;DHT22;6789;47.678;9.158;2022-09-09T14:18:39;22.80;99.90
13433;DHT22;6789;47.678;9.158;2022-09-09T14:24:07;22.90;99.90
13433;DHT22;6789;47.678;9.158;2022-09-09T14:29:14;22.90;99.90
13433;DHT22;6789;47.678;9.158;2022-09-09T14:34:32;22.70;99.90
13433;DHT22;6789;47.678;9.158;2022-09-09T14:39:38;22.50;99.90
13433;DHT22;6789;47.678;9.158;2022-09-09T14:44:44;22.60;99.90
13433;DHT22;6789;47.678;9.158;2022-09-09T14:49:50;22.00;99.90
13433;DHT22;6789;47.678;9.158;2022-09-09T14:54:57;21.60;99.90
13433;DHT22;6789;47.678;9.158;2022-09-09T15:00:04;21.70;99.90
13433;DHT22;6789;47.678;9.158;2022-09-09T15:05:13;21.60;99.90
13433;DHT22;6789;47.678;9.158;2022-09-09T15:10:21;21.80;99.90
13433;DHT22;6789;47.678;9.158;2022-09-09T15:15:27;22.00;99.90
13433;DHT22;6789;47.678;9.158;2022-09-09T15:20:33;21.80;99.90
13433;DHT22;6789;47.678;9.158;2022-09-09T15:25:57;21.90;99.90
13433;DHT22;6789;47.678;9.158;2022-09-09T15:31:07;22.30;99.90
13433;DHT22;6789;47.678;9.158;2022-09-09T15:41:38;22.70;99.90
13433;DHT22;6789;47.678;9.158;2022-09-09T15:47:10;22.30;99.90
13433;DHT22;6789;47.678;9.158;2022-09-09T15:52:18;22.20;99.90
13433;DHT22;6789;47.678;9.158;2022-09-09T15:57:25;22.20;99.90
13433;DHT22;6789;47.678;9.158;2022-09-09T16:02:36;22.30;99.90
13433;DHT22;6789;47.678;9.158;2022-09-09T16:07:52;22.10;99.90
13433;DHT22;6789;47.678;9.158;2022-09-09T16:12:58;22.00;99.90
13433;DHT22;6789;47.678;9.158;2022-09-09T16:18:38;21.90;99.90
13433;DHT22;6789;47.678;9.158;2022-09-09T16:23:50;21.70;99.90
13433;DHT22;6789;47.678;9.158;2022-09-09T16:29:05;21.60;99.90
13433;DHT22;6789;47.678;9.158;2022-09-09T16:34:14;21.60;99.90
13433;DHT22;6789;47.678;9.158;2022-09-09T16:39:23;21.40;99.90
13433;DHT22;6789;47.678;9.158;2022-09-09T16:44:30;21.30;99.90
13433;DHT22;6789;47.678;9.158;2022-09-09T16:49:36;21.20;99.90
13433;DHT22;6789;47.678;9.158;2022-09-09T16:54:42;21.10;99.90
13433;DHT22;6789;47.678;9.158;2022-09-09T16:59:49;21.00;99.90
13433;DHT22;6789;47.678;9.158;2022-09-09T17:05:06;21.00;99.90
13433;DHT22;6789;47.678;9.158;2022-09-09T17:10:12;20.90;99.90
13433;DHT22;6789;47.678;9.158;2022-09-09T17:15:19;20.60;99.90
13433;DHT22;6789;47.678;9.158;2022-09-09T17:20:26;20.20;99.90
13433;DHT22;6789;47.678;9.158;2022-09-09T17:25:33;20.00;99.90
13433;DHT22;6789;47.678;9.158;2022-09-09T17:30:39;19.80;99.90
13433;DHT22;6789;47.678;9.158;2022-09-09T17:35:49;19.60;99.90
13433;DHT22;6789;47.678;9.158;2022-09-09T17:41:11;19.40;99.90
13433;DHT22;6789;47.678;9.158;2022-09-09T17:46:32;19.40;99.90
13433;DHT22;6789;47.678;9.158;2022-09-09T17:51:44;19.40;99.90
13433;DHT22;6789;47.678;9.158;2022-09-09T17:56:52;19.40;99.90
13433;DHT22;6789;47.678;9.158;2022-09-09T18:01:58;19.40;99.90
13433;DHT22;6789;47.678;9.158;2022-09-09T18:07:08;19.30;99.90
13433;DHT22;6789;47.678;9.158;2022-09-09T18:12:16;19.10;99.90
13433;DHT22;6789;47.678;9.158;2022-09-09T18:17:23;18.60;99.90
13433;DHT22;6789;47.678;9.158;2022-09-09T18:22:32;18.20;99.90
13433;DHT22;6789;47.678;9.158;2022-09-09T18:27:48;17.70;99.90
13433;DHT22;6789;47.678;9.158;2022-09-09T18:32:54;17.40;99.90
13433;DHT22;6789;47.678;9.158;2022-09-09T18:38:00;17.30;99.90
13433;DHT22;6789;47.678;9.158;2022-09-09T18:43:07;17.20;99.90
13433;DHT22;6789;47.678;9.158;2022-09-09T18:48:12;17.00;99.90
13433;DHT22;6789;47.678;9.158;2022-09-09T18:53:18;17.00;99.90
13433;DHT22;6789;47.678;9.158;2022-09-09T18:58:26;17.00;99.90
13433;DHT22;6789;47.678;9.158;2022-09-09T19:03:37;16.90;99.90
13433;DHT22;6789;47.678;9.158;2022-09-09T19:08:45;16.80;99.90
13433;DHT22;6789;47.678;9.158;2022-09-09T19:13:57;16.80;99.90
13433;DHT22;6789;47.678;9.158;2022-09-09T19:19:07;16.70;99.90
13433;DHT22;6789;47.678;9.158;2022-09-09T19:30:09;16.40;99.90
13433;DHT22;6789;47.678;9.158;2022-09-09T19:35:35;16.10;99.90
13433;DHT22;6789;47.678;9.158;2022-09-09T19:40:41;16.00;99.90
13433;DHT22;6789;47.678;9.158;2022-09-09T19:46:04;16.00;99.90
13433;DHT22;6789;47.678;9.158;2022-09-09T19:51:19;15.90;99.90
13433;DHT22;6789;47.678;9.158;2022-09-09T19:56:32;15.90;99.90
13433;DHT22;6789;47.678;9.158;2022-09-09T20:01:40;15.90;99.90
13433;DHT22;6789;47.678;9.158;2022-09-09T20:06:59;15.80;99.90
13433;DHT22;6789;47.678;9.158;2022-09-09T20:12:05;15.80;99.90
13433;DHT22;6789;47.678;9.158;2022-09-09T20:17:12;15.80;99.90
13433;DHT22;6789;47.678;9.158;2022-09-09T20:22:22;15.80;99.90
13433;DHT22;6789;47.678;9.158;2022-09-09T20:33:34;15.70;99.90
13433;DHT22;6789;47.678;9.158;2022-09-09T20:38:46;15.60;99.90
13433;DHT22;6789;47.678;9.158;2022-09-09T20:44:10;15.60;99.90
13433;DHT22;6789;47.678;9.158;2022-09-09T20:49:41;15.50;99.90
13433;DHT22;6789;47.678;9.158;2022-09-09T20:54:47;15.40;99.90
13433;DHT22;6789;47.678;9.158;2022-09-09T21:00:05;15.40;99.90
13433;DHT22;6789;47.678;9.158;2022-09-09T21:05:16;15.40;99.90
13433;DHT22;6789;47.678;9.158;2022-09-09T21:10:24;15.40;99.90
13433;DHT22;6789;47.678;9.158;2022-09-09T21:15:33;15.30;99.90
13433;DHT22;6789;47.678;9.158;2022-09-09T21:20:44;15.30;99.90
13433;DHT22;6789;47.678;9.158;2022-09-09T21:25:51;15.30;99.90
13433;DHT22;6789;47.678;9.158;2022-09-09T21:31:13;15.30;99.90
13433;DHT22;6789;47.678;9.158;2022-09-09T21:36:42;15.30;99.90
13433;DHT22;6789;47.678;9.158;2022-09-09T21:41:51;15.40;99.90
13433;DHT22;6789;47.678;9.158;2022-09-09T21:47:04;15.40;99.90
13433;DHT22;6789;47.678;9.158;2022-09-09T21:52:10;15.40;99.90
13433;DHT22;6789;47.678;9.158;2022-09-09T21:57:25;15.30;99.90
13433;DHT22;6789;47.678;9.158;2022-09-09T22:02:31;15.30;99.90
13433;DHT22;6789;47.678;9.158;2022-09-09T22:07:53;15.30;99.90
13433;DHT22;6789;47.678;9.158;2022-09-09T22:13:00;15.20;99.90
13433;DHT22;6789;47.678;9.158;2022-09-09T22:18:06;15.10;99.90
13433;DHT22;6789;47.678;9.158;2022-09-09T22:23:15;15.10;99.90
13433;DHT22;6789;47.678;9.158;2022-09-09T22:28:22;15.10;99.90
13433;DHT22;6789;47.678;9.158;2022-09-09T22:33:31;15.10;99.90
13433;DHT22;6789;47.678;9.158;2022-09-09T22:38:38;15.20;99.90
13433;DHT22;6789;47.678;9.158;2022-09-09T22:43:45;15.20;99.90
13433;DHT22;6789;47.678;9.158;2022-09-09T22:48:52;15.20;99.90
13433;DHT22;6789;47.678;9.158;2022-09-09T22:53:59;15.30;99.90
13433;DHT22;6789;47.678;9.158;2022-09-09T22:59:06;15.30;99.90
13433;DHT22;6789;47.678;9.158;2022-09-09T23:04:13;15.30;99.90
13433;DHT22;6789;47.678;9.158;2022-09-09T23:09:20;15.20;99.90
13433;DHT22;6789;47.678;9.158;2022-09-09T23:14:36;15.20;99.90
13433;DHT22;6789;47.678;9.158;2022-09-09T23:19:53;15.20;99.90
13433;DHT22;6789;47.678;9.158;2022-09-09T23:25:04;15.20;99.90
13433;DHT22;6789;47.678;9.158;2022-09-09T23:30:21;15.10;99.90
13433;DHT22;6789;47.678;9.158;2022-09-09T23:35:28;15.00;99.90
13433;DHT22;6789;47.678;9.158;2022-09-09T23:40:44;15.10;99.90
13433;DHT22;6789;47.678;9.158;2022-09-09T23:45:52;15.10;99.90
13433;DHT22;6789;47.678;9.158;2022-09-09T23:51:01;15.10;99.90
13433;DHT22;6789;47.678;9.158;2022-09-09T23:56:08;15.20;99.90
